sensor_id;sensor_type;location;lat;lon;timestamp;pressure;altitude;pressure_sealevel;temperature;humidity
22647;BME280;11490;42.726;23.268;2023-01-27T00:01:05;94393.13;;;1.32;100.00
22647;BME280;11490;42.726;23.268;2023-01-27T00:03:31;94366.66;;;1.40;100.00
22647;BME280;11490;42.726;23.268;2023-01-27T00:05:56;94358.78;;;1.27;100.00
22647;BME280;11490;42.726;23.268;2023-01-27T00:08:25;94347.47;;;1.33;100.00
22647;BME280;11490;42.726;23.268;2023-01-27T00:10:50;94414.56;;;1.22;100.00
22647;BME280;11490;42.726;23.268;2023-01-27T00:13:35;94350.91;;;1.13;100.00
22647;BME280;11490;42.726;23.268;2023-01-27T00:16:01;94348.50;;;1.19;100.00
22647;BME280;11490;42.726;23.268;2023-01-27T00:18:27;94379.81;;;1.13;100.00
22647;BME280;11490;42.726;23.268;2023-01-27T00:20:52;94339.78;;;0.85;100.00
22647;BME280;11490;42.726;23.268;2023-01-27T00:23:36;94326.47;;;1.20;100.00
22647;BME280;11490;42.726;23.268;2023-01-27T00:26:20;94342.63;;;1.49;100.00
22647;BME280;11490;42.726;23.268;2023-01-27T00:28:46;94319.19;;;1.35;100.00
22647;BME280;11490;42.726;23.268;2023-01-27T00:31:13;94339.00;;;1.31;100.00
22647;BME280;11490;42.726;23.268;2023-01-27T00:33:57;94307.09;;;1.21;100.00
22647;BME280;11490;42.726;23.268;2023-01-27T00:36:29;94326.47;;;1.00;100.00
22647;BME280;11490;42.726;23.268;2023-01-27T00:38:56;94342.66;;;1.23;100.00
22647;BME280;11490;42.726;23.268;2023-01-27T00:41:21;94340.59;;;1.05;100.00
22647;BME280;11490;42.726;23.268;2023-01-27T00:43:49;94377.78;;;1.29;100.00
22647;BME280;11490;42.726;23.268;2023-01-27T00:46:16;94350.72;;;1.35;100.00
22647;BME280;11490;42.726;23.268;2023-01-27T00:48:41;94341.22;;;1.34;100.00
22647;BME280;11490;42.726;23.268;2023-01-27T00:51:07;94364.06;;;1.46;100.00
22647;BME280;11490;42.726;23.268;2023-01-27T00:53:33;94345.06;;;1.31;100.00
22647;BME280;11490;42.726;23.268;2023-01-27T00:55:59;94366.69;;;1.27;100.00
22647;BME280;11490;42.726;23.268;2023-01-27T00:58:25;94329.91;;;1.27;100.00
22647;BME280;11490;42.726;23.268;2023-01-27T01:00:55;94364.06;;;1.53;100.00
22647;BME280;11490;42.726;23.268;2023-01-27T01:03:21;94350.53;;;1.23;100.00
22647;BME280;11490;42.726;23.268;2023-01-27T01:05:48;94378.22;;;1.52;100.00
22647;BME280;11490;42.726;23.268;2023-01-27T01:08:14;94369.72;;;1.43;100.00
22647;BME280;11490;42.726;23.268;2023-01-27T01:10:39;94355.97;;;1.15;100.00
22647;BME280;11490;42.726;23.268;2023-01-27T01:13:05;94334.16;;;1.41;100.00
22647;BME280;11490;42.726;23.268;2023-01-27T01:15:38;94337.16;;;1.25;100.00
22647;BME280;11490;42.726;23.268;2023-01-27T01:18:05;94363.63;;;1.16;100.00
22647;BME280;11490;42.726;23.268;2023-01-27T01:20:35;94355.56;;;1.38;100.00
22647;BME280;11490;42.726;23.268;2023-01-27T01:23:00;94338.22;;;1.24;100.00
22647;BME280;11490;42.726;23.268;2023-01-27T01:25:26;94353.53;;;1.20;100.00
22647;BME280;11490;42.726;23.268;2023-01-27T01:27:51;94368.28;;;1.41;100.00
22647;BME280;11490;42.726;23.268;2023-01-27T01:30:16;94365.25;;;1.57;100.00
22647;BME280;11490;42.726;23.268;2023-01-27T01:32:42;94346.69;;;1.52;100.00
22647;BME280;11490;42.726;23.268;2023-01-27T01:35:07;94381.44;;;1.61;100.00
22647;BME280;11490;42.726;23.268;2023-01-27T01:37:33;94350.91;;;1.27;100.00
22647;BME280;11490;42.726;23.268;2023-01-27T01:39:58;94375.38;;;1.34;100.00
22647;BME280;11490;42.726;23.268;2023-01-27T01:42:24;94394.75;;;1.33;100.00
22647;BME280;11490;42.726;23.268;2023-01-27T01:47:53;94329.72;;;1.15;100.00
22647;BME280;11490;42.726;23.268;2023-01-27T01:50:18;94367.72;;;1.45;100.00
22647;BME280;11490;42.726;23.268;2023-01-27T01:52:44;94377.59;;;1.50;100.00
22647;BME280;11490;42.726;23.268;2023-01-27T01:55:09;94359.59;;;1.60;100.00
22647;BME280;11490;42.726;23.268;2023-01-27T01:57:34;94384.66;;;1.82;100.00
22647;BME280;11490;42.726;23.268;2023-01-27T02:00:06;94322.41;;;1.50;100.00
22647;BME280;11490;42.726;23.268;2023-01-27T02:02:32;94323.66;;;1.54;100.00
22647;BME280;11490;42.726;23.268;2023-01-27T02:05:05;94309.09;;;1.45;100.00
22647;BME280;11490;42.726;23.268;2023-01-27T02:07:33;94347.09;;;1.62;100.00
22647;BME280;11490;42.726;23.268;2023-01-27T02:10:00;94294.75;;;1.41;100.00
22647;BME280;11490;42.726;23.268;2023-01-27T02:12:26;94332.72;;;1.58;100.00
22647;BME280;11490;42.726;23.268;2023-01-27T02:14:51;94278.00;;;1.15;100.00
22647;BME280;11490;42.726;23.268;2023-01-27T02:17:17;94282.03;;;1.44;100.00
22647;BME280;11490;42.726;23.268;2023-01-27T02:28:06;94269.69;;;1.32;100.00
22647;BME280;11490;42.726;23.268;2023-01-27T02:30:33;94261.81;;;1.38;100.00
22647;BME280;11490;42.726;23.268;2023-01-27T02:32:58;94270.72;;;1.31;100.00
22647;BME280;11490;42.726;23.268;2023-01-27T02:35:36;94278.81;;;1.23;100.00
22647;BME280;11490;42.726;23.268;2023-01-27T02:38:04;94263.66;;;0.98;100.00
22647;BME280;11490;42.726;23.268;2023-01-27T02:40:31;94304.66;;;1.06;100.00
22647;BME280;11490;42.726;23.268;2023-01-27T02:42:58;94294.56;;;1.23;100.00
22647;BME280;11490;42.726;23.268;2023-01-27T02:45:24;94297.16;;;1.42;100.00
22647;BME280;11490;42.726;23.268;2023-01-27T02:47:49;94286.06;;;1.34;100.00
22647;BME280;11490;42.726;23.268;2023-01-27T02:50:15;94261.41;;;1.35;100.00
22647;BME280;11490;42.726;23.268;2023-01-27T02:52:41;94305.84;;;1.43;100.00
22647;BME280;11490;42.726;23.268;2023-01-27T02:55:06;94284.44;;;0.87;100.00
22647;BME280;11490;42.726;23.268;2023-01-27T02:57:32;94294.28;;;0.52;100.00
22647;BME280;11490;42.726;23.268;2023-01-27T02:59:57;94274.06;;;0.39;100.00
22647;BME280;11490;42.726;23.268;2023-01-27T03:02:23;94266.53;;;0.16;100.00
22647;BME280;11490;42.726;23.268;2023-01-27T03:04:55;94315.03;;;0.47;100.00
22647;BME280;11490;42.726;23.268;2023-01-27T03:07:21;94310.44;;;0.55;100.00
22647;BME280;11490;42.726;23.268;2023-01-27T03:09:46;94283.59;;;0.53;100.00
22647;BME280;11490;42.726;23.268;2023-01-27T03:12:12;94273.50;;;0.44;100.00
22647;BME280;11490;42.726;23.268;2023-01-27T03:14:48;94274.69;;;0.48;100.00
22647;BME280;11490;42.726;23.268;2023-01-27T03:17:32;94281.34;;;0.37;100.00
22647;BME280;11490;42.726;23.268;2023-01-27T03:20:17;94291.66;;;0.52;100.00
22647;BME280;11490;42.726;23.268;2023-01-27T03:22:42;94278.72;;;0.44;100.00
22647;BME280;11490;42.726;23.268;2023-01-27T03:25:08;94284.00;;;0.57;100.00
22647;BME280;11490;42.726;23.268;2023-01-27T03:27:33;94247.69;;;0.67;100.00
22647;BME280;11490;42.726;23.268;2023-01-27T03:29:59;94257.00;;;0.83;100.00
22647;BME280;11490;42.726;23.268;2023-01-27T03:32:26;94264.25;;;0.74;100.00
22647;BME280;11490;42.726;23.268;2023-01-27T03:34:52;94234.38;;;0.75;100.00
22647;BME280;11490;42.726;23.268;2023-01-27T03:37:18;94270.72;;;1.17;100.00
22647;BME280;11490;42.726;23.268;2023-01-27T03:40:02;94236.41;;;1.06;100.00
22647;BME280;11490;42.726;23.268;2023-01-27T03:42:46;94236.38;;;0.86;100.00
22647;BME280;11490;42.726;23.268;2023-01-27T03:45:31;94255.78;;;1.18;100.00
22647;BME280;11490;42.726;23.268;2023-01-27T03:48:14;94199.22;;;1.02;100.00
22647;BME280;11490;42.726;23.268;2023-01-27T03:50:42;94193.56;;;1.12;100.00
22647;BME280;11490;42.726;23.268;2023-01-27T03:53:09;94199.66;;;0.99;100.00
22647;BME280;11490;42.726;23.268;2023-01-27T03:55:36;94200.84;;;1.03;100.00
22647;BME280;11490;42.726;23.268;2023-01-27T03:58:02;94248.03;;;1.56;100.00
22647;BME280;11490;42.726;23.268;2023-01-27T04:01:11;94237.09;;;1.66;100.00
22647;BME280;11490;42.726;23.268;2023-01-27T04:03:37;94223.38;;;1.57;100.00
22647;BME280;11490;42.726;23.268;2023-01-27T04:06:23;94189.47;;;1.42;100.00
22647;BME280;11490;42.726;23.268;2023-01-27T04:09:09;94235.50;;;1.58;100.00
22647;BME280;11490;42.726;23.268;2023-01-27T04:11:35;94259.53;;;1.68;100.00
22647;BME280;11490;42.726;23.268;2023-01-27T04:14:22;94277.31;;;1.66;100.00
22647;BME280;11490;42.726;23.268;2023-01-27T04:16:50;94294.97;;;1.20;100.00
22647;BME280;11490;42.726;23.268;2023-01-27T04:19:15;94305.06;;;0.90;100.00
22647;BME280;11490;42.726;23.268;2023-01-27T04:21:41;94299.56;;;0.78;100.00
22647;BME280;11490;42.726;23.268;2023-01-27T04:24:07;94278.31;;;0.47;100.00
22647;BME280;11490;42.726;23.268;2023-01-27T04:26:33;94298.19;;;0.95;100.00
22647;BME280;11490;42.726;23.268;2023-01-27T04:29:00;94299.59;;;1.24;100.00
22647;BME280;11490;42.726;23.268;2023-01-27T04:31:26;94276.38;;;1.01;100.00
22647;BME280;11490;42.726;23.268;2023-01-27T04:33:52;94318.00;;;1.31;100.00
22647;BME280;11490;42.726;23.268;2023-01-27T04:36:17;94352.34;;;1.42;100.00
22647;BME280;11490;42.726;23.268;2023-01-27T04:38:43;94344.25;;;1.17;100.00
22647;BME280;11490;42.726;23.268;2023-01-27T04:41:09;94306.69;;;1.37;100.00
22647;BME280;11490;42.726;23.268;2023-01-27T04:43:35;94337.53;;;1.81;100.00
22647;BME280;11490;42.726;23.268;2023-01-27T04:46:01;94327.22;;;1.79;100.00
22647;BME280;11490;42.726;23.268;2023-01-27T04:48:26;94331.72;;;1.59;100.00
22647;BME280;11490;42.726;23.268;2023-01-27T04:50:51;94360.41;;;1.61;100.00
22647;BME280;11490;42.726;23.268;2023-01-27T04:53:17;94328.88;;;1.67;100.00
22647;BME280;11490;42.726;23.268;2023-01-27T04:55:46;94317.13;;;1.76;100.00
22647;BME280;11490;42.726;23.268;2023-01-27T04:58:13;94346.19;;;1.94;100.00
22647;BME280;11490;42.726;23.268;2023-01-27T05:00:39;94354.34;;;1.60;100.00
22647;BME280;11490;42.726;23.268;2023-01-27T05:03:04;94345.66;;;1.66;100.00
22647;BME280;11490;42.726;23.268;2023-01-27T05:05:31;94300.41;;;1.38;100.00
22647;BME280;11490;42.726;23.268;2023-01-27T05:08:02;94292.13;;;1.41;100.00
22647;BME280;11490;42.726;23.268;2023-01-27T05:10:27;94334.56;;;1.51;100.00
22647;BME280;11490;42.726;23.268;2023-01-27T05:12:53;94335.94;;;1.73;100.00
22647;BME280;11490;42.726;23.268;2023-01-27T05:15:18;94325.59;;;1.78;100.00
22647;BME280;11490;42.726;23.268;2023-01-27T05:17:43;94339.34;;;1.80;100.00
22647;BME280;11490;42.726;23.268;2023-01-27T05:20:09;94333.88;;;1.88;100.00
22647;BME280;11490;42.726;23.268;2023-01-27T05:22:35;94337.94;;;1.91;100.00
22647;BME280;11490;42.726;23.268;2023-01-27T05:25:00;94331.09;;;1.70;100.00
22647;BME280;11490;42.726;23.268;2023-01-27T05:27:25;94334.91;;;1.87;100.00
22647;BME280;11490;42.726;23.268;2023-01-27T05:29:51;94332.47;;;1.92;100.00
22647;BME280;11490;42.726;23.268;2023-01-27T05:32:16;94325.59;;;1.91;100.00
22647;BME280;11490;42.726;23.268;2023-01-27T05:34:42;94299.94;;;1.80;100.00
22647;BME280;11490;42.726;23.268;2023-01-27T05:37:07;94290.44;;;1.79;100.00
22647;BME280;11490;42.726;23.268;2023-01-27T05:39:33;94312.69;;;1.83;100.00
22647;BME280;11490;42.726;23.268;2023-01-27T05:41:58;94271.09;;;1.54;100.00
22647;BME280;11490;42.726;23.268;2023-01-27T05:44:23;94280.13;;;1.71;100.00
22647;BME280;11490;42.726;23.268;2023-01-27T05:46:49;94276.72;;;1.58;100.00
22647;BME280;11490;42.726;23.268;2023-01-27T05:49:14;94314.31;;;1.58;100.00
22647;BME280;11490;42.726;23.268;2023-01-27T05:51:40;94304.47;;;1.14;100.00
22647;BME280;11490;42.726;23.268;2023-01-27T05:54:05;94287.50;;;1.23;100.00
22647;BME280;11490;42.726;23.268;2023-01-27T05:56:32;94282.41;;;1.41;100.00
22647;BME280;11490;42.726;23.268;2023-01-27T05:58:58;94269.94;;;1.24;100.00
22647;BME280;11490;42.726;23.268;2023-01-27T06:01:29;94328.47;;;1.57;100.00
22647;BME280;11490;42.726;23.268;2023-01-27T06:03:55;94322.81;;;1.01;100.00
22647;BME280;11490;42.726;23.268;2023-01-27T06:06:22;94317.38;;;1.09;100.00
22647;BME280;11490;42.726;23.268;2023-01-27T06:08:48;94302.22;;;1.04;100.00
22647;BME280;11490;42.726;23.268;2023-01-27T06:11:15;94315.97;;;1.20;100.00
22647;BME280;11490;42.726;23.268;2023-01-27T06:13:42;94293.56;;;1.24;100.00
22647;BME280;11490;42.726;23.268;2023-01-27T06:16:09;94309.69;;;1.34;100.00
22647;BME280;11490;42.726;23.268;2023-01-27T06:18:35;94286.06;;;1.21;100.00
22647;BME280;11490;42.726;23.268;2023-01-27T06:21:02;94294.97;;;1.26;100.00
22647;BME280;11490;42.726;23.268;2023-01-27T06:23:28;94307.91;;;1.14;100.00
22647;BME280;11490;42.726;23.268;2023-01-27T06:25:55;94312.72;;;1.17;100.00
22647;BME280;11490;42.726;23.268;2023-01-27T06:28:21;94279.59;;;1.03;100.00
22647;BME280;11490;42.726;23.268;2023-01-27T06:30:46;94317.78;;;1.26;100.00
22647;BME280;11490;42.726;23.268;2023-01-27T06:33:12;94319.81;;;1.37;100.00
22647;BME280;11490;42.726;23.268;2023-01-27T06:35:39;94327.47;;;1.25;100.00
22647;BME280;11490;42.726;23.268;2023-01-27T06:38:06;94337.38;;;1.16;100.00
22647;BME280;11490;42.726;23.268;2023-01-27T06:40:33;94317.19;;;1.10;100.00
22647;BME280;11490;42.726;23.268;2023-01-27T06:42:58;94308.50;;;1.03;100.00
22647;BME280;11490;42.726;23.268;2023-01-27T06:45:24;94293.53;;;0.84;100.00
22647;BME280;11490;42.726;23.268;2023-01-27T06:47:55;94350.31;;;1.25;100.00
22647;BME280;11490;42.726;23.268;2023-01-27T06:50:21;94346.88;;;1.17;100.00
22647;BME280;11490;42.726;23.268;2023-01-27T06:52:47;94287.91;;;1.00;100.00
22647;BME280;11490;42.726;23.268;2023-01-27T06:55:12;94336.16;;;1.65;100.00
22647;BME280;11490;42.726;23.268;2023-01-27T06:57:37;94274.75;;;1.33;100.00
22647;BME280;11490;42.726;23.268;2023-01-27T07:00:03;94341.81;;;1.69;100.00
22647;BME280;11490;42.726;23.268;2023-01-27T07:02:29;94350.09;;;1.85;100.00
22647;BME280;11490;42.726;23.268;2023-01-27T07:04:54;94352.69;;;1.79;100.00
22647;BME280;11490;42.726;23.268;2023-01-27T07:07:20;94326.22;;;1.80;100.00
22647;BME280;11490;42.726;23.268;2023-01-27T07:09:45;94325.41;;;1.73;100.00
22647;BME280;11490;42.726;23.268;2023-01-27T07:12:11;94324.22;;;1.76;100.00
22647;BME280;11490;42.726;23.268;2023-01-27T07:14:36;94336.13;;;1.91;100.00
22647;BME280;11490;42.726;23.268;2023-01-27T07:17:01;94341.75;;;1.95;100.00
22647;BME280;11490;42.726;23.268;2023-01-27T07:19:27;94313.88;;;1.81;100.00
22647;BME280;11490;42.726;23.268;2023-01-27T07:21:54;94345.41;;;1.87;100.00
22647;BME280;11490;42.726;23.268;2023-01-27T07:24:19;94335.66;;;2.08;100.00
22647;BME280;11490;42.726;23.268;2023-01-27T07:26:44;94304.13;;;2.08;100.00
22647;BME280;11490;42.726;23.268;2023-01-27T07:29:12;94356.50;;;2.16;100.00
22647;BME280;11490;42.726;23.268;2023-01-27T07:31:37;94359.13;;;2.03;100.00
22647;BME280;11490;42.726;23.268;2023-01-27T07:34:03;94316.34;;;1.76;100.00
22647;BME280;11490;42.726;23.268;2023-01-27T07:36:28;94315.09;;;1.91;100.00
22647;BME280;11490;42.726;23.268;2023-01-27T07:38:54;94309.00;;;1.98;100.00
22647;BME280;11490;42.726;23.268;2023-01-27T07:41:19;94363.09;;;2.38;100.00
22647;BME280;11490;42.726;23.268;2023-01-27T07:43:47;94341.78;;;1.82;100.00
22647;BME280;11490;42.726;23.268;2023-01-27T07:46:19;94319.94;;;1.81;100.00
22647;BME280;11490;42.726;23.268;2023-01-27T07:48:44;94296.47;;;1.86;99.73
22647;BME280;11490;42.726;23.268;2023-01-27T07:51:13;94289.22;;;1.75;99.46
22647;BME280;11490;42.726;23.268;2023-01-27T07:53:40;94323.53;;;2.07;100.00
22647;BME280;11490;42.726;23.268;2023-01-27T07:56:06;94351.03;;;2.11;99.05
22647;BME280;11490;42.726;23.268;2023-01-27T07:58:37;94321.94;;;1.99;98.91
22647;BME280;11490;42.726;23.268;2023-01-27T08:01:09;94361.91;;;2.27;98.82
22647;BME280;11490;42.726;23.268;2023-01-27T08:03:35;94348.63;;;1.96;98.62
22647;BME280;11490;42.726;23.268;2023-01-27T08:06:09;94361.69;;;2.29;98.81
22647;BME280;11490;42.726;23.268;2023-01-27T08:08:35;94321.13;;;1.99;99.21
22647;BME280;11490;42.726;23.268;2023-01-27T08:11:03;94357.25;;;2.29;98.67
22647;BME280;11490;42.726;23.268;2023-01-27T08:13:30;94328.00;;;2.00;98.51
22647;BME280;11490;42.726;23.268;2023-01-27T08:15:57;94303.38;;;1.74;99.83
22647;BME280;11490;42.726;23.268;2023-01-27T08:18:24;94289.16;;;1.95;99.67
22647;BME280;11490;42.726;23.268;2023-01-27T08:20:51;94362.66;;;2.41;99.34
22647;BME280;11490;42.726;23.268;2023-01-27T08:23:19;94327.50;;;2.29;98.74
22647;BME280;11490;42.726;23.268;2023-01-27T08:25:51;94316.56;;;2.32;97.96
22647;BME280;11490;42.726;23.268;2023-01-27T08:28:18;94310.06;;;2.35;97.24
22647;BME280;11490;42.726;23.268;2023-01-27T08:30:45;94368.84;;;2.66;96.50
22647;BME280;11490;42.726;23.268;2023-01-27T08:33:10;94372.69;;;2.70;96.05
22647;BME280;11490;42.726;23.268;2023-01-27T08:35:36;94353.34;;;2.45;96.15
22647;BME280;11490;42.726;23.268;2023-01-27T08:38:03;94317.88;;;2.03;97.30
22647;BME280;11490;42.726;23.268;2023-01-27T08:40:29;94353.19;;;2.27;97.71
22647;BME280;11490;42.726;23.268;2023-01-27T08:42:55;94384.19;;;2.12;99.70
22647;BME280;11490;42.726;23.268;2023-01-27T08:45:20;94352.69;;;1.99;99.56
22647;BME280;11490;42.726;23.268;2023-01-27T08:47:45;94338.59;;;1.53;100.00
22647;BME280;11490;42.726;23.268;2023-01-27T08:50:11;94341.22;;;1.40;100.00
22647;BME280;11490;42.726;23.268;2023-01-27T08:52:36;94348.25;;;1.73;100.00
22647;BME280;11490;42.726;23.268;2023-01-27T08:55:02;94371.09;;;1.99;100.00
22647;BME280;11490;42.726;23.268;2023-01-27T08:57:27;94360.16;;;1.88;99.84
22647;BME280;11490;42.726;23.268;2023-01-27T08:59:56;94352.72;;;1.85;100.00
22647;BME280;11490;42.726;23.268;2023-01-27T09:02:22;94327.50;;;1.45;100.00
22647;BME280;11490;42.726;23.268;2023-01-27T09:04:49;94334.56;;;1.51;100.00
22647;BME280;11490;42.726;23.268;2023-01-27T09:07:14;94326.47;;;1.46;100.00
22647;BME280;11490;42.726;23.268;2023-01-27T09:09:39;94328.88;;;1.47;100.00
22647;BME280;11490;42.726;23.268;2023-01-27T09:12:05;94313.53;;;1.51;100.00
22647;BME280;11490;42.726;23.268;2023-01-27T09:14:30;94357.53;;;1.88;100.00
22647;BME280;11490;42.726;23.268;2023-01-27T09:16:56;94343.81;;;1.93;100.00
22647;BME280;11490;42.726;23.268;2023-01-27T09:19:21;94336.69;;;2.07;100.00
22647;BME280;11490;42.726;23.268;2023-01-27T09:21:47;94346.97;;;2.15;99.63
22647;BME280;11490;42.726;23.268;2023-01-27T09:24:12;94339.25;;;2.20;99.54
22647;BME280;11490;42.726;23.268;2023-01-27T09:26:42;94354.69;;;2.03;99.30
22647;BME280;11490;42.726;23.268;2023-01-27T09:29:07;94321.81;;;1.68;100.00
22647;BME280;11490;42.726;23.268;2023-01-27T09:31:33;94332.13;;;1.69;100.00
22647;BME280;11490;42.726;23.268;2023-01-27T09:33:58;94333.72;;;1.70;100.00
22647;BME280;11490;42.726;23.268;2023-01-27T09:36:24;94315.13;;;1.65;100.00
22647;BME280;11490;42.726;23.268;2023-01-27T09:38:56;94300.13;;;1.79;100.00
22647;BME280;11490;42.726;23.268;2023-01-27T09:42:06;94341.56;;;1.97;100.00
22647;BME280;11490;42.726;23.268;2023-01-27T09:45:04;94338.16;;;1.63;100.00
22647;BME280;11490;42.726;23.268;2023-01-27T09:47:51;94344.63;;;1.74;100.00
22647;BME280;11490;42.726;23.268;2023-01-27T09:50:43;94335.31;;;1.71;100.00
22647;BME280;11490;42.726;23.268;2023-01-27T09:55:51;94308.84;;;1.66;100.00
22647;BME280;11490;42.726;23.268;2023-01-27T09:58:38;94280.78;;;1.60;100.00
22647;BME280;11490;42.726;23.268;2023-01-27T10:09:31;94312.25;;;1.80;100.00
22647;BME280;11490;42.726;23.268;2023-01-27T10:20:33;94270.94;;;2.07;99.67
22647;BME280;11490;42.726;23.268;2023-01-27T10:28:33;94264.59;;;1.70;100.00
22647;BME280;11490;42.726;23.268;2023-01-27T10:31:01;94259.72;;;1.73;100.00
22647;BME280;11490;42.726;23.268;2023-01-27T10:33:50;94308.91;;;2.24;100.00
22647;BME280;11490;42.726;23.268;2023-01-27T10:36:29;94306.13;;;2.06;100.00
22647;BME280;11490;42.726;23.268;2023-01-27T10:41:46;94290.34;;;2.06;100.00
22647;BME280;11490;42.726;23.268;2023-01-27T10:46:47;94305.22;;;1.67;100.00
22647;BME280;11490;42.726;23.268;2023-01-27T10:49:21;94265.84;;;1.54;100.00
22647;BME280;11490;42.726;23.268;2023-01-27T10:52:15;94297.28;;;1.93;100.00
22647;BME280;11490;42.726;23.268;2023-01-27T10:57:38;94288.56;;;2.00;100.00
22647;BME280;11490;42.726;23.268;2023-01-27T11:00:15;94286.91;;;2.05;100.00
22647;BME280;11490;42.726;23.268;2023-01-27T11:03:43;94293.03;;;1.92;100.00
22647;BME280;11490;42.726;23.268;2023-01-27T11:05:57;94263.00;;;1.62;100.00
22647;BME280;11490;42.726;23.268;2023-01-27T11:08:28;94248.41;;;1.66;100.00
22647;BME280;11490;42.726;23.268;2023-01-27T11:10:59;94256.47;;;1.78;100.00
22647;BME280;11490;42.726;23.268;2023-01-27T11:13:43;94271.09;;;1.54;100.00
22647;BME280;11490;42.726;23.268;2023-01-27T11:16:15;94302.19;;;1.70;100.00
22647;BME280;11490;42.726;23.268;2023-01-27T11:18:41;94289.81;;;1.90;100.00
22647;BME280;11490;42.726;23.268;2023-01-27T11:21:17;94290.00;;;1.89;100.00
22647;BME280;11490;42.726;23.268;2023-01-27T11:23:48;94286.19;;;1.78;100.00
22647;BME280;11490;42.726;23.268;2023-01-27T11:34:15;94240.72;;;1.65;100.00
22647;BME280;11490;42.726;23.268;2023-01-27T11:36:42;94266.19;;;1.77;100.00
22647;BME280;11490;42.726;23.268;2023-01-27T11:39:09;94256.91;;;1.68;100.00
22647;BME280;11490;42.726;23.268;2023-01-27T11:41:37;94259.09;;;1.84;100.00
22647;BME280;11490;42.726;23.268;2023-01-27T11:44:15;94273.03;;;1.78;100.00
22647;BME280;11490;42.726;23.268;2023-01-27T11:46:44;94273.47;;;1.75;100.00
22647;BME280;11490;42.726;23.268;2023-01-27T11:49:09;94264.22;;;1.53;100.00
22647;BME280;11490;42.726;23.268;2023-01-27T11:51:39;94268.63;;;1.66;100.00
22647;BME280;11490;42.726;23.268;2023-01-27T11:54:21;94263.59;;;1.58;100.00
22647;BME280;11490;42.726;23.268;2023-01-27T11:56:48;94267.56;;;1.86;100.00
22647;BME280;11490;42.726;23.268;2023-01-27T11:59:32;94259.66;;;1.86;100.00
22647;BME280;11490;42.726;23.268;2023-01-27T12:02:16;94247.00;;;1.70;100.00
22647;BME280;11490;42.726;23.268;2023-01-27T12:05:35;94216.78;;;1.28;100.00
22647;BME280;11490;42.726;23.268;2023-01-27T12:08:03;94218.19;;;1.31;100.00
22647;BME280;11490;42.726;23.268;2023-01-27T12:13:07;94254.88;;;1.77;100.00
22647;BME280;11490;42.726;23.268;2023-01-27T12:15:34;94246.31;;;1.88;100.00
22647;BME280;11490;42.726;23.268;2023-01-27T12:18:13;94266.75;;;1.79;100.00
22647;BME280;11490;42.726;23.268;2023-01-27T12:20:57;94223.16;;;1.65;100.00
22647;BME280;11490;42.726;23.268;2023-01-27T12:24:20;94245.41;;;1.56;100.00
22647;BME280;11490;42.726;23.268;2023-01-27T12:26:35;94255.34;;;1.41;100.00
22647;BME280;11490;42.726;23.268;2023-01-27T12:29:15;94270.44;;;1.65;100.00
22647;BME280;11490;42.726;23.268;2023-01-27T12:31:49;94231.50;;;1.42;100.00
22647;BME280;11490;42.726;23.268;2023-01-27T12:36:51;94271.22;;;1.85;100.00
22647;BME280;11490;42.726;23.268;2023-01-27T12:39:26;94245.91;;;1.91;100.00
22647;BME280;11490;42.726;23.268;2023-01-27T12:41:54;94251.53;;;2.08;100.00
22647;BME280;11490;42.726;23.268;2023-01-27T12:44:19;94255.06;;;2.26;100.00
22647;BME280;11490;42.726;23.268;2023-01-27T12:47:00;94230.94;;;1.91;100.00
22647;BME280;11490;42.726;23.268;2023-01-27T12:49:44;94245.22;;;2.15;100.00
22647;BME280;11490;42.726;23.268;2023-01-27T12:52:17;94231.72;;;1.99;100.00
22647;BME280;11490;42.726;23.268;2023-01-27T12:54:43;94257.47;;;2.28;100.00
22647;BME280;11490;42.726;23.268;2023-01-27T12:57:15;94248.31;;;1.99;100.00
22647;BME280;11490;42.726;23.268;2023-01-27T12:59:54;94203.06;;;1.84;100.00
22647;BME280;11490;42.726;23.268;2023-01-27T13:02:25;94262.66;;;2.41;100.00
22647;BME280;11490;42.726;23.268;2023-01-27T13:04:58;94263.88;;;2.45;100.00
22647;BME280;11490;42.726;23.268;2023-01-27T13:07:28;94239.72;;;2.17;100.00
22647;BME280;11490;42.726;23.268;2023-01-27T13:10:05;94231.09;;;2.41;100.00
22647;BME280;11490;42.726;23.268;2023-01-27T13:12:46;94229.28;;;2.42;100.00
22647;BME280;11490;42.726;23.268;2023-01-27T13:15:20;94208.72;;;2.32;100.00
22647;BME280;11490;42.726;23.268;2023-01-27T13:17:48;94198.06;;;2.14;100.00
22647;BME280;11490;42.726;23.268;2023-01-27T13:20:38;94250.19;;;2.30;100.00
22647;BME280;11490;42.726;23.268;2023-01-27T13:23:13;94259.47;;;2.39;100.00
22647;BME280;11490;42.726;23.268;2023-01-27T13:25:46;94248.56;;;2.29;100.00
22647;BME280;11490;42.726;23.268;2023-01-27T13:31:06;94223.53;;;2.20;100.00
22647;BME280;11490;42.726;23.268;2023-01-27T13:33:55;94231.09;;;2.03;100.00
22647;BME280;11490;42.726;23.268;2023-01-27T13:36:41;94236.06;;;2.18;100.00
22647;BME280;11490;42.726;23.268;2023-01-27T13:40:13;94248.66;;;2.16;100.00
22647;BME280;11490;42.726;23.268;2023-01-27T13:42:20;94260.38;;;2.13;100.00
22647;BME280;11490;42.726;23.268;2023-01-27T13:44:59;94257.59;;;2.08;100.00
22647;BME280;11490;42.726;23.268;2023-01-27T13:48:07;94278.81;;;2.07;100.00
22647;BME280;11490;42.726;23.268;2023-01-27T13:50:34;94271.38;;;1.97;100.00
22647;BME280;11490;42.726;23.268;2023-01-27T13:53:00;94250.44;;;1.64;100.00
22647;BME280;11490;42.726;23.268;2023-01-27T14:06:44;94252.44;;;1.75;100.00
22647;BME280;11490;42.726;23.268;2023-01-27T14:09:27;94259.44;;;1.94;100.00
22647;BME280;11490;42.726;23.268;2023-01-27T14:12:22;94283.88;;;2.02;100.00
22647;BME280;11490;42.726;23.268;2023-01-27T14:15:13;94273.03;;;1.78;100.00
22647;BME280;11490;42.726;23.268;2023-01-27T14:17:53;94239.34;;;1.55;100.00